Time;durP1;ratioP1;P1;durP2;ratioP2;P2;SDS_P1;SDS_P2;PMS_P1;PMS_P2;Temp;Humidity;BMP_temperature;BMP_pressure;BME280_temperature;BME280_humidity;BME280_pressure;Samples;Min_cycle;Max_cycle;Signal;HPM_P1;HPM_P2
2023/05/02 00:03:56;;;;;;;6.97;5.45;;;;;;;10.99;57.71;100063.44;10522086;28;20464;-63
2023/05/02 00:08:58;;;;;;;8.77;5.93;;;;;;;10.96;57.79;100063.59;10521913;28;20508;-63
2023/05/02 00:14:00;;;;;;;7.38;6.15;;;;;;;10.88;57.83;100065.81;10522383;28;20117;-63
2023/05/02 00:19:02;;;;;;;13.93;7.38;;;;;;;10.76;57.89;100061.31;10521878;28;20139;-63
2023/05/02 00:24:04;;;;;;;8.95;7.25;;;;;;;10.72;58.09;100063.28;10503130;28;20059;-63
2023/05/02 00:29:07;;;;;;;9.32;7.63;;;;;;;10.68;58.36;100074.84;10521964;28;20139;-63
2023/05/02 00:34:09;;;;;;;9.77;7.82;;;;;;;10.71;58.28;100071.19;10502978;28;20051;-63
2023/05/02 00:39:10;;;;;;;8.70;7.60;;;;;;;10.74;58.40;100068.41;10477728;28;20132;-64
2023/05/02 00:44:12;;;;;;;9.73;8.23;;;;;;;10.72;58.25;100078.97;10461547;28;20463;-63
2023/05/02 00:49:14;;;;;;;7.95;7.13;;;;;;;10.62;58.45;100085.66;10478414;28;20146;-64
2023/05/02 00:54:16;;;;;;;8.50;6.80;;;;;;;10.58;58.63;100093.75;10493781;28;20397;-64
2023/05/02 00:59:18;;;;;;;9.52;7.57;;;;;;;10.45;58.73;100091.00;10477003;28;20048;-64
2023/05/02 01:04:59;;;;;;;9.15;7.07;;;;;;;10.24;59.58;100087.81;10478498;28;20041;-63
2023/05/02 01:10:19;;;;;;;9.82;7.13;;;;;;;10.21;59.83;100098.44;10477758;28;20139;-64
2023/05/02 01:15:22;;;;;;;11.00;8.02;;;;;;;10.20;59.68;100106.34;10476872;28;20265;-64
2023/05/02 01:20:28;;;;;;;13.18;9.80;;;;;;;10.21;59.84;100108.91;10493551;28;20603;-64
2023/05/02 01:25:50;;;;;;;12.57;10.13;;;;;;;10.08;60.18;100115.72;10477009;28;20140;-63
2023/05/02 01:30:55;;;;;;;10.57;8.98;;;;;;;10.07;59.89;100113.22;10477169;28;20576;-64
2023/05/02 01:35:58;;;;;;;19.90;17.75;;;;;;;9.97;60.79;100112.84;10485245;28;20147;-61
2023/05/02 01:41:04;;;;;;;12.07;9.75;;;;;;;10.08;60.64;100109.66;10518182;28;20139;-61
2023/05/02 01:46:09;;;;;;;10.90;9.70;;;;;;;9.99;60.59;100111.00;10518373;28;20047;-61
2023/05/02 01:51:16;;;;;;;14.30;12.80;;;;;;;9.90;60.81;100108.88;10518159;28;20048;-61
2023/05/02 01:56:20;;;;;;;12.88;11.32;;;;;;;9.90;60.81;100121.09;10499559;28;20048;-61
2023/05/02 02:01:26;;;;;;;13.25;11.68;;;;;;;9.82;60.91;100128.50;10499663;28;20051;-61
2023/05/02 02:06:28;;;;;;;12.65;11.07;;;;;;;9.72;61.24;100137.75;10517974;28;20093;-61
2023/05/02 02:11:45;;;;;;;14.32;12.63;;;;;;;9.58;61.98;100139.28;10532882;28;20492;-61
2023/05/02 02:16:49;;;;;;;16.90;14.90;;;;;;;9.70;61.57;100134.38;10517671;28;20094;-61
2023/05/02 02:21:54;;;;;;;26.75;23.85;;;;;;;9.67;62.37;100153.66;10517543;28;20044;-61
2023/05/02 02:26:56;;;;;;;33.63;30.05;;;;;;;9.71;62.83;100155.19;10532438;28;20051;-61
2023/05/02 02:31:58;;;;;;;38.20;32.92;;;;;;;9.80;62.95;100166.94;10486162;28;20071;-61
2023/05/02 02:37:07;;;;;;;21.38;17.60;;;;;;;9.82;62.06;100175.53;10516760;28;20083;-61
2023/05/02 02:42:23;;;;;;;29.75;25.33;;;;;;;9.77;62.39;100170.53;10517002;28;20155;-61
2023/05/02 02:47:36;;;;;;;30.45;26.92;;;;;;;9.70;62.57;100184.84;10516466;28;20052;-61
2023/05/02 02:52:53;;;;;;;27.65;23.13;;;;;;;9.71;62.63;100185.72;10498363;28;20078;-64
2023/05/02 02:58:00;;;;;;;28.02;25.02;;;;;;;9.77;62.35;100190.59;10531953;28;20561;-64
2023/05/02 03:03:05;;;;;;;32.60;28.55;;;;;;;9.83;62.60;100190.28;10516530;28;20113;-64
2023/05/02 03:08:07;;;;;;;38.22;33.25;;;;;;;9.93;62.93;100202.75;10516528;28;20094;-64
2023/05/02 03:13:09;;;;;;;46.30;37.10;;;;;;;10.12;62.83;100202.63;10515079;28;20609;-64
2023/05/02 03:18:13;;;;;;;46.65;40.35;;;;;;;10.14;63.01;100211.22;10498548;28;20043;-63
2023/05/02 03:23:15;;;;;;;44.92;36.63;;;;;;;10.09;62.99;100208.03;10516242;28;20063;-64
2023/05/02 03:28:17;;;;;;;55.83;44.15;;;;;;;10.01;63.34;100216.25;10515351;28;20496;-64
2023/05/02 03:33:22;;;;;;;51.33;42.22;;;;;;;9.98;63.68;100213.81;10497578;28;20044;-64
2023/05/02 03:38:24;;;;;;;60.35;45.65;;;;;;;9.86;63.70;100222.31;10498857;28;20048;-64
2023/05/02 03:43:26;;;;;;;52.65;42.15;;;;;;;9.80;63.95;100225.25;10522882;28;20080;-64
2023/05/02 03:48:29;;;;;;;52.30;41.42;;;;;;;9.83;63.92;100235.50;10505003;28;20083;-63
2023/05/02 03:53:32;;;;;;;69.20;50.10;;;;;;;9.70;64.43;100239.69;10504720;28;20052;-64
2023/05/02 03:58:35;;;;;;;72.25;53.75;;;;;;;9.74;64.70;100246.47;10504198;28;20371;-64
2023/05/02 04:03:38;;;;;;;75.32;51.75;;;;;;;9.80;64.61;100247.91;10486963;28;20779;-64
2023/05/02 04:08:42;;;;;;;67.32;49.35;;;;;;;9.89;64.27;100253.47;10537928;28;20078;-61
2023/05/02 04:13:44;;;;;;;63.63;47.78;;;;;;;9.96;64.05;100261.84;10522396;28;20040;-61
2023/05/02 04:18:46;;;;;;;69.15;51.38;;;;;;;9.99;64.53;100269.56;10503482;28;20040;-63
2023/05/02 04:23:48;;;;;;;81.57;57.50;;;;;;;10.25;64.49;100274.25;10486675;28;20052;-63
2023/05/02 04:28:49;;;;;;;78.13;54.22;;;;;;;10.50;63.97;100282.47;10503137;28;20051;-63
2023/05/02 04:33:51;;;;;;;86.18;57.85;;;;;;;10.72;63.57;100290.00;10486292;28;20427;-63
2023/05/02 04:38:57;;;;;;;79.82;54.22;;;;;;;10.77;63.36;100294.03;10502866;28;20048;-63
2023/05/02 04:43:59;;;;;;;82.68;56.80;;;;;;;10.95;63.04;100307.91;10520599;28;20097;-63
2023/05/02 04:49:02;;;;;;;83.07;56.80;;;;;;;11.21;62.76;100304.72;10502166;28;20052;-63
2023/05/02 04:54:04;;;;;;;82.45;55.17;;;;;;;11.32;62.08;100311.97;10535409;28;20032;-63
2023/05/02 04:59:05;;;;;;;75.88;52.03;;;;;;;11.32;61.76;100331.13;10518852;28;20518;-63
2023/05/02 05:04:08;;;;;;;79.47;52.30;;;;;;;11.35;61.50;100330.09;10502178;28;20055;-63
2023/05/02 05:09:11;;;;;;;70.05;48.47;;;;;;;11.40;61.47;100341.19;10501506;28;20488;-63
2023/05/02 05:14:13;;;;;;;77.95;51.70;;;;;;;11.43;61.30;100346.22;10501230;28;20044;-63
2023/05/02 05:19:17;;;;;;;72.20;48.70;;;;;;;11.65;60.92;100346.69;10501105;28;20059;-63
2023/05/02 05:24:20;;;;;;;73.82;49.58;;;;;;;11.71;60.49;100352.44;10500997;28;20071;-63
2023/05/02 05:29:23;;;;;;;71.40;49.60;;;;;;;11.99;60.17;100352.50;10500619;28;20739;-63
2023/05/02 05:34:25;;;;;;;68.38;46.78;;;;;;;12.08;59.62;100356.38;10483623;28;20101;-63
2023/05/02 05:39:31;;;;;;;73.85;49.15;;;;;;;12.17;59.54;100365.47;10475354;28;20050;-63
2023/05/02 05:44:35;;;;;;;73.53;50.42;;;;;;;12.22;59.33;100368.66;10491788;28;20131;-63
2023/05/02 05:49:37;;;;;;;74.38;50.20;;;;;;;12.31;59.30;100376.84;10508992;28;20048;-63
2023/05/02 05:54:42;;;;;;;71.60;48.20;;;;;;;12.18;59.26;100378.47;10458328;28;20501;-63
2023/05/02 05:59:44;;;;;;;77.05;47.70;;;;;;;12.17;59.29;100381.19;10476050;28;20044;-63
2023/05/02 06:04:48;;;;;;;62.70;43.35;;;;;;;12.13;59.42;100385.75;10474961;28;20044;-63
2023/05/02 06:09:53;;;;;;;62.42;42.95;;;;;;;12.34;58.68;100389.78;10474330;28;20423;-63
2023/05/02 06:14:55;;;;;;;57.13;38.03;;;;;;;12.30;58.89;100404.00;10508325;28;20046;-64
2023/05/02 06:19:57;;;;;;;62.20;39.08;;;;;;;12.29;58.81;100407.59;10475617;28;20055;-63
2023/05/02 06:25:01;;;;;;;63.17;39.90;;;;;;;12.21;58.90;100415.03;10474420;28;20044;-64
2023/05/02 06:30:03;;;;;;;61.35;37.17;;;;;;;12.18;58.79;100420.44;10474873;28;20056;-63
2023/05/02 06:35:06;;;;;;;47.88;29.58;;;;;;;12.02;58.46;100435.38;10476620;28;20052;-64
2023/05/02 06:40:08;;;;;;;46.33;28.95;;;;;;;11.95;58.43;100442.72;10499128;28;20054;-63
2023/05/02 06:45:10;;;;;;;40.47;26.27;;;;;;;11.95;58.55;100450.59;10482063;28;20094;-63
2023/05/02 06:50:12;;;;;;;40.83;25.05;;;;;;;12.08;58.23;100464.72;10514779;28;20139;-63
2023/05/02 06:55:14;;;;;;;38.42;24.83;;;;;;;12.00;58.24;100459.06;10516691;28;20393;-63
2023/05/02 07:00:17;;;;;;;38.55;24.38;;;;;;;12.08;58.00;100471.72;10516372;28;20131;-63
2023/05/02 07:05:19;;;;;;;36.78;23.75;;;;;;;12.01;57.78;100483.47;10516472;28;20075;-64
2023/05/02 07:10:21;;;;;;;38.45;25.40;;;;;;;11.96;57.83;100493.38;10517562;28;20159;-64
2023/05/02 07:15:23;;;;;;;42.63;26.58;;;;;;;12.15;57.61;100496.63;10520411;28;20050;-64
2023/05/02 07:20:25;;;;;;;40.83;26.35;;;;;;;12.16;57.04;100500.97;10539935;28;20036;-64
2023/05/02 07:25:27;;;;;;;43.22;25.50;;;;;;;12.24;57.35;100511.84;10505751;28;20133;-63
2023/05/02 07:30:29;;;;;;;43.15;25.55;;;;;;;12.50;56.53;100503.34;10523842;28;20442;-63
2023/05/02 07:35:30;;;;;;;38.90;25.38;;;;;;;13.02;55.80;100505.50;10523793;28;20139;-63
2023/05/02 07:40:32;;;;;;;38.17;24.30;;;;;;;13.24;54.81;100516.38;10523618;28;20138;-64
2023/05/02 07:45:34;;;;;;;32.67;20.65;;;;;;;13.01;55.18;100511.69;10523165;28;20052;-64
2023/05/02 07:50:36;;;;;;;33.08;21.98;;;;;;;13.12;54.72;100510.09;10505191;28;20408;-64
2023/05/02 07:55:37;;;;;;;36.72;22.63;;;;;;;13.66;53.53;100514.59;10522756;28;20127;-64
2023/05/02 08:00:39;;;;;;;35.47;22.88;;;;;;;13.88;53.18;100506.16;10522886;28;20126;-64
2023/05/02 08:05:41;;;;;;;32.05;22.00;;;;;;;14.08;52.76;100516.28;10522561;28;20044;-64
2023/05/02 08:10:44;;;;;;;33.33;22.67;;;;;;;14.36;52.40;100512.66;10522272;28;20123;-64
2023/05/02 08:15:46;;;;;;;30.63;22.13;;;;;;;14.53;51.53;100510.63;10522240;28;20056;-64
2023/05/02 08:20:49;;;;;;;30.48;21.83;;;;;;;14.61;51.17;100517.19;10521902;28;20135;-64
2023/05/02 08:25:51;;;;;;;30.33;20.60;;;;;;;14.36;51.10;100524.03;10521291;28;20337;-64
2023/05/02 08:30:53;;;;;;;28.58;20.52;;;;;;;14.45;50.80;100531.31;10503508;28;20048;-64
2023/05/02 08:35:55;;;;;;;27.45;19.73;;;;;;;14.45;50.45;100533.94;10521402;28;20058;-64
2023/05/02 08:40:56;;;;;;;29.33;20.02;;;;;;;14.70;50.04;100527.06;10521157;28;20044;-63
2023/05/02 08:46:00;;;;;;;28.25;20.63;;;;;;;15.13;49.37;100523.22;10486557;28;20081;-64
2023/05/02 08:51:03;;;;;;;27.15;20.23;;;;;;;15.45;48.40;100527.06;10520764;28;20044;-64
2023/05/02 08:56:06;;;;;;;27.65;19.63;;;;;;;15.74;47.59;100531.16;10520127;28;20058;-64
2023/05/02 09:01:13;;;;;;;26.98;19.33;;;;;;;15.99;47.57;100541.63;10520330;28;20047;-63
2023/05/02 09:06:17;;;;;;;27.52;18.73;;;;;;;16.06;47.65;100539.41;10519923;28;20083;-63
2023/05/02 09:11:20;;;;;;;21.38;15.60;;;;;;;15.63;47.08;100538.16;10519902;28;20605;-64
2023/05/02 09:16:24;;;;;;;20.40;15.60;;;;;;;15.52;47.27;100546.81;10520324;28;20081;-64
2023/05/02 09:21:39;;;;;;;21.00;14.93;;;;;;;15.93;46.00;100543.88;10519152;28;20044;-64
2023/05/02 09:26:40;;;;;;;19.13;14.27;;;;;;;16.03;46.00;100539.63;10501546;28;20480;-64
2023/05/02 09:31:45;;;;;;;18.50;13.40;;;;;;;16.49;45.71;100535.31;10500924;28;20143;-64
2023/05/02 09:36:57;;;;;;;21.05;14.68;;;;;;;16.48;45.64;100545.97;10517766;28;20131;-64
2023/05/02 09:42:00;;;;;;;19.40;12.73;;;;;;;16.97;44.22;100546.63;10519050;28;20052;-64
2023/05/02 09:47:02;;;;;;;16.00;11.60;;;;;;;17.31;43.69;100547.50;10500884;28;20066;-63
2023/05/02 09:52:21;;;;;;;17.73;12.10;;;;;;;17.77;41.69;100541.13;10518244;28;20036;-64
2023/05/02 09:57:39;;;;;;;18.48;11.50;;;;;;;18.04;40.40;100547.81;10518196;28;20522;-64
2023/05/02 10:02:41;;;;;;;16.58;10.90;;;;;;;18.45;40.79;100540.00;10518250;28;20071;-64
2023/05/02 10:07:45;;;;;;;12.68;9.27;;;;;;;18.95;39.06;100523.34;10533266;28;20100;-64
2023/05/02 10:12:51;;;;;;;15.25;10.02;;;;;;;19.66;38.63;100516.31;10517512;28;20052;-64
2023/05/02 10:17:57;;;;;;;13.75;7.40;;;;;;;18.39;38.28;100527.28;10517264;28;20343;-64
2023/05/02 10:23:00;;;;;;;12.02;8.20;;;;;;;17.98;40.27;100535.91;10517357;28;20051;-64
2023/05/02 10:28:02;;;;;;;11.10;8.10;;;;;;;18.47;39.95;100551.31;10517183;28;20083;-64
2023/05/02 10:33:04;;;;;;;10.65;6.90;;;;;;;18.60;39.48;100550.19;10517228;28;20051;-64
2023/05/02 10:38:06;;;;;;;10.10;6.28;;;;;;;18.59;40.14;100550.28;10516670;28;20536;-64
2023/05/02 10:43:14;;;;;;;7.30;5.50;;;;;;;19.10;38.92;100551.25;10516811;28;20142;-64
2023/05/02 10:48:18;;;;;;;5.75;4.20;;;;;;;19.34;38.23;100537.69;10517418;28;20075;-64
2023/05/02 10:53:27;;;;;;;5.30;3.78;;;;;;;19.51;38.18;100529.09;10525453;28;20077;-64
2023/05/02 10:58:29;;;;;;;5.90;4.40;;;;;;;18.83;38.91;100545.59;10525432;28;20115;-64
2023/05/02 11:03:52;;;;;;;5.50;4.03;;;;;;;18.27;39.07;100550.31;10524489;28;20044;-65
2023/05/02 11:09:17;;;;;;;6.93;4.45;;;;;;;17.84;40.36;100544.97;10524312;28;20056;-65
2023/05/02 11:14:25;;;;;;;5.45;4.38;;;;;;;17.67;40.56;100545.47;10524750;28;20127;-64
2023/05/02 11:19:28;;;;;;;5.70;4.18;;;;;;;17.56;40.64;100548.13;10524469;28;20043;-64
2023/05/02 11:24:50;;;;;;;7.43;4.93;;;;;;;17.55;40.05;100558.81;10524153;28;20047;-64
2023/05/02 11:29:53;;;;;;;6.18;5.10;;;;;;;17.87;40.07;100551.00;10523917;28;20048;-63
2023/05/02 11:34:55;;;;;;;6.50;5.38;;;;;;;18.02;39.34;100547.94;10523925;28;20136;-63
2023/05/02 11:40:10;;;;;;;6.40;5.30;;;;;;;17.64;37.95;100556.31;10505656;28;20251;-63
2023/05/02 11:45:12;;;;;;;8.13;6.57;;;;;;;17.35;39.80;100564.81;10505088;28;20071;-63
2023/05/02 11:50:14;;;;;;;8.50;5.93;;;;;;;17.00;40.56;100555.16;10505365;28;20068;-64
2023/05/02 11:55:16;;;;;;;8.73;6.22;;;;;;;16.67;39.90;100575.34;10523062;28;20074;-64
2023/05/02 12:00:18;;;;;;;10.05;7.30;;;;;;;16.40;40.15;100580.00;10521982;28;20138;-64
2023/05/02 12:05:31;;;;;;;10.57;8.18;;;;;;;16.74;40.04;100584.50;10522547;28;20130;-63
2023/05/02 12:10:36;;;;;;;11.10;8.63;;;;;;;17.07;39.79;100583.75;10522287;28;20496;-63
2023/05/02 12:15:38;;;;;;;10.32;7.95;;;;;;;16.87;40.09;100591.38;10522014;28;20048;-64
2023/05/02 12:20:41;;;;;;;10.93;7.63;;;;;;;16.60;40.73;100593.44;10522205;28;20559;-64
2023/05/02 12:25:42;;;;;;;9.35;7.38;;;;;;;16.92;40.37;100606.88;10521742;28;20559;-63
2023/05/02 12:30:47;;;;;;;8.65;6.40;;;;;;;16.88;39.67;100608.91;10521565;28;20386;-64
2023/05/02 12:35:50;;;;;;;11.40;6.60;;;;;;;16.95;39.95;100611.94;10503388;28;20054;-64
2023/05/02 12:40:56;;;;;;;9.35;6.32;;;;;;;17.03;39.12;100620.13;10536803;28;20048;-61
2023/05/02 12:46:11;;;;;;;8.00;6.10;;;;;;;17.02;38.40;100618.44;10521048;28;20044;-61
2023/05/02 12:51:21;;;;;;;7.43;6.05;;;;;;;17.03;38.73;100628.91;10502708;28;20082;-61
2023/05/02 12:56:23;;;;;;;;;;;;;;;16.29;40.44;100630.06;10520980;28;20431;-61
2023/05/02 13:01:25;;;;;;;8.57;5.70;;;;;;;16.61;39.81;100633.91;10520223;28;20202;-64
2023/05/02 13:06:27;;;;;;;10.00;5.20;;;;;;;16.55;39.72;100632.53;10501804;28;20050;-64
2023/05/02 13:11:29;;;;;;;9.52;6.10;;;;;;;16.69;40.30;100644.75;10500884;28;20416;-62
2023/05/02 13:16:33;;;;;;;10.10;6.35;;;;;;;16.79;39.96;100643.13;10519613;28;20044;-63
2023/05/02 13:21:35;;;;;;;10.20;6.38;;;;;;;16.83;39.76;100650.69;10519523;28;20074;-62
2023/05/02 13:26:37;;;;;;;9.52;5.97;;;;;;;16.56;39.58;100660.66;10501058;28;20108;-62
2023/05/02 13:31:39;;;;;;;7.68;5.93;;;;;;;16.53;39.64;100670.59;10519456;28;20051;-62
2023/05/02 13:36:44;;;;;;;12.32;6.45;;;;;;;16.66;39.85;100666.09;10500500;28;20090;-62
2023/05/02 13:41:47;;;;;;;9.38;6.10;;;;;;;16.74;39.18;100659.31;10518387;28;20117;-62
2023/05/02 13:46:49;;;;;;;9.35;5.28;;;;;;;16.73;39.07;100670.00;10518486;28;20051;-62
2023/05/02 13:51:50;;;;;;;5.90;3.70;;;;;;;16.82;38.69;100667.50;10518300;28;20562;-62
2023/05/02 13:56:52;;;;;;;10.65;4.47;;;;;;;16.96;38.56;100664.69;10518278;28;20196;-62
2023/05/02 14:01:54;;;;;;;7.03;3.70;;;;;;;16.95;37.70;100656.88;10483160;28;20139;-62
2023/05/02 14:06:56;;;;;;;7.38;3.70;;;;;;;17.34;38.09;100675.06;10518211;28;20135;-62
2023/05/02 14:11:58;;;;;;;6.63;3.90;;;;;;;17.16;37.31;100686.97;10517289;28;20052;-62
2023/05/02 14:17:01;;;;;;;6.90;3.60;;;;;;;17.23;36.23;100690.84;10517726;28;20054;-63
2023/05/02 14:22:03;;;;;;;7.70;3.67;;;;;;;17.30;36.02;100689.41;10517074;28;20126;-63
2023/05/02 14:27:06;;;;;;;8.27;4.10;;;;;;;16.94;37.09;100681.59;10517093;28;20616;-63
2023/05/02 14:32:08;;;;;;;8.02;4.20;;;;;;;17.27;36.19;100680.88;10517564;28;20423;-63
2023/05/02 14:37:10;;;;;;;8.27;4.43;;;;;;;17.16;36.48;100688.78;10516992;28;20052;-62
2023/05/02 14:42:11;;;;;;;7.72;3.90;;;;;;;16.62;37.14;100697.19;10516842;28;20540;-62
2023/05/02 14:47:13;;;;;;;7.82;4.28;;;;;;;16.46;36.99;100695.75;10517057;28;20202;-62
2023/05/02 14:52:15;;;;;;;7.72;4.18;;;;;;;16.74;37.55;100701.56;10532328;28;20044;-63
2023/05/02 14:57:17;;;;;;;10.82;4.78;;;;;;;16.72;37.69;100697.34;10516333;28;20147;-63
2023/05/02 15:02:20;;;;;;;9.63;4.63;;;;;;;16.89;36.83;100707.53;10517140;28;20040;-63
2023/05/02 15:07:22;;;;;;;6.35;4.00;;;;;;;16.76;37.08;100701.44;10516351;28;20113;-63
2023/05/02 15:12:25;;;;;;;7.53;4.40;;;;;;;16.95;37.26;100701.78;10516382;28;20385;-63
2023/05/02 15:17:26;;;;;;;6.80;4.50;;;;;;;16.70;37.38;100701.91;10516414;28;20070;-63
2023/05/02 15:22:28;;;;;;;6.55;4.13;;;;;;;16.94;37.07;100694.81;10516266;28;20040;-63
2023/05/02 15:27:30;;;;;;;11.90;3.70;;;;;;;16.92;35.20;100702.00;10516483;28;20054;-63
2023/05/02 15:32:32;;;;;;;5.45;3.65;;;;;;;16.63;35.15;100701.50;10498222;28;20051;-63
2023/05/02 15:37:34;;;;;;;8.40;3.80;;;;;;;16.53;35.65;100697.84;10522121;28;20064;-62
2023/05/02 15:42:36;;;;;;;7.95;4.50;;;;;;;16.50;35.62;100699.84;10505052;28;20319;-63
2023/05/02 15:47:39;;;;;;;7.72;4.85;;;;;;;16.10;37.04;100699.19;10523168;28;20079;-62
2023/05/02 15:52:41;;;;;;;7.55;4.68;;;;;;;16.44;36.77;100708.22;10523289;28;20044;-63
2023/05/02 15:57:43;;;;;;;6.63;4.15;;;;;;;16.47;37.11;100702.72;10522614;28;20044;-63
2023/05/02 16:02:45;;;;;;;7.30;4.70;;;;;;;16.32;37.23;100711.69;10522702;28;20054;-62
2023/05/02 16:07:46;;;;;;;7.68;4.30;;;;;;;16.51;37.16;100714.75;10522483;28;20657;-62
2023/05/02 16:12:48;;;;;;;8.27;4.40;;;;;;;16.44;37.26;100719.63;10521962;28;20047;-62
2023/05/02 16:17:50;;;;;;;6.55;4.20;;;;;;;16.30;36.96;100716.25;10522386;28;20054;-63
2023/05/02 16:22:52;;;;;;;7.90;4.10;;;;;;;16.03;37.04;100714.59;10522216;28;20109;-62
2023/05/02 16:27:54;;;;;;;6.50;4.28;;;;;;;15.50;37.42;100714.81;10520083;28;20044;-63
2023/05/02 16:32:56;;;;;;;10.15;4.75;;;;;;;15.37;36.85;100725.28;10521369;28;20476;-62
2023/05/02 16:37:58;;;;;;;10.05;4.40;;;;;;;15.69;36.93;100728.44;10521233;28;20135;-62
2023/05/02 16:43:00;;;;;;;7.75;4.65;;;;;;;15.94;36.05;100735.47;10520883;28;20051;-62
2023/05/02 16:48:03;;;;;;;7.60;4.35;;;;;;;15.99;36.07;100742.16;10520908;28;20058;-62
2023/05/02 16:53:05;;;;;;;6.88;3.40;;;;;;;15.72;36.35;100732.63;10520742;28;20094;-62
2023/05/02 16:58:07;;;;;;;7.13;3.58;;;;;;;15.79;36.42;100737.41;10520370;28;20122;-62
2023/05/02 17:03:09;;;;;;;5.82;3.30;;;;;;;15.52;36.46;100739.28;10520850;28;20044;-62
2023/05/02 17:08:12;;;;;;;8.05;3.35;;;;;;;15.16;36.59;100739.88;10501847;28;20052;-62
2023/05/02 17:13:15;;;;;;;8.05;3.10;;;;;;;14.95;37.15;100737.81;10519823;28;20040;-62
2023/05/02 17:18:16;;;;;;;9.73;2.97;;;;;;;14.92;36.61;100745.94;10519749;28;20494;-62
2023/05/02 17:23:18;;;;;;;6.30;2.85;;;;;;;14.69;36.92;100736.88;10501635;28;20063;-62
2023/05/02 17:28:20;;;;;;;6.03;2.55;;;;;;;14.50;37.00;100753.00;10519324;28;20050;-62
2023/05/02 17:33:22;;;;;;;6.72;2.70;;;;;;;14.33;38.03;100753.16;10501267;28;20044;-62
2023/05/02 17:38:25;;;;;;;6.97;2.97;;;;;;;14.14;38.11;100755.25;10518945;28;20058;-62
2023/05/02 17:43:27;;;;;;;6.20;2.80;;;;;;;13.91;38.25;100758.44;10518509;28;20089;-62
2023/05/02 17:48:29;;;;;;;7.78;3.22;;;;;;;13.82;39.08;100769.47;10519429;28;20300;-62
2023/05/02 17:53:33;;;;;;;9.23;3.17;;;;;;;13.88;38.48;100763.03;10518601;28;20044;-62
2023/05/02 17:58:36;;;;;;;8.75;3.00;;;;;;;13.75;38.93;100763.75;10499236;28;20155;-62
2023/05/02 18:03:38;;;;;;;10.68;3.45;;;;;;;13.62;39.43;100769.81;10518124;28;20040;-62
2023/05/02 18:08:40;;;;;;;9.60;3.63;;;;;;;13.55;39.12;100773.75;10517992;28;20054;-62
2023/05/02 18:13:43;;;;;;;9.70;3.60;;;;;;;13.44;39.88;100770.91;10517238;28;20048;-62
2023/05/02 18:18:45;;;;;;;8.60;3.10;;;;;;;13.30;40.23;100778.69;10518033;28;20048;-62
2023/05/02 18:23:47;;;;;;;7.10;2.97;;;;;;;13.06;41.02;100788.84;10499848;28;20132;-62
2023/05/02 18:28:52;;;;;;;8.60;3.55;;;;;;;12.82;41.39;100785.78;10517189;28;20147;-62
2023/05/02 18:33:54;;;;;;;4.97;2.90;;;;;;;12.72;42.00;100797.72;10499698;28;20396;-62
2023/05/02 18:38:56;;;;;;;6.07;3.28;;;;;;;12.55;42.36;100796.97;10498910;28;20491;-62
2023/05/02 18:43:58;;;;;;;6.55;3.55;;;;;;;12.44;43.06;100810.66;10517664;28;20044;-62
2023/05/02 18:49:01;;;;;;;8.93;3.60;;;;;;;12.27;43.38;100818.56;10516584;28;20048;-62
2023/05/02 18:54:03;;;;;;;7.20;3.30;;;;;;;12.09;44.28;100829.97;10516936;28;20040;-62
2023/05/02 18:59:05;;;;;;;7.85;3.58;;;;;;;11.96;44.01;100834.16;10516429;28;20064;-62
2023/05/02 19:04:07;;;;;;;10.30;3.20;;;;;;;11.73;44.71;100840.56;10516457;28;20048;-63
2023/05/02 19:09:11;;;;;;;9.50;4.03;;;;;;;11.62;45.22;100836.81;10498914;28;20056;-62
2023/05/02 19:14:13;;;;;;;6.70;3.67;;;;;;;11.52;45.70;100844.25;10524856;28;20130;-62
2023/05/02 19:19:16;;;;;;;7.78;3.45;;;;;;;11.31;45.13;100847.94;10524507;28;20040;-62
2023/05/02 19:24:19;;;;;;;15.85;3.67;;;;;;;11.21;45.50;100857.16;10524446;28;20050;-62
2023/05/02 19:29:21;;;;;;;11.70;3.70;;;;;;;11.15;45.99;100860.06;10524101;28;20101;-62
2023/05/02 19:34:23;;;;;;;7.55;3.55;;;;;;;11.06;45.90;100871.81;10524003;28;20046;-62
2023/05/02 19:39:25;;;;;;;7.47;3.33;;;;;;;10.90;46.10;100878.63;10523759;28;20052;-62
2023/05/02 19:44:27;;;;;;;9.05;3.17;;;;;;;10.84;46.19;100878.06;10523730;28;20044;-62
2023/05/02 19:49:28;;;;;;;9.73;3.60;;;;;;;10.52;46.45;100887.38;10523335;28;20324;-62
2023/05/02 19:54:32;;;;;;;7.38;3.65;;;;;;;10.44;46.99;100899.91;10523175;28;20040;-62
2023/05/02 19:59:33;;;;;;;8.73;3.42;;;;;;;10.39;46.58;100892.28;10522471;28;20411;-62
2023/05/02 20:04:35;;;;;;;15.50;4.15;;;;;;;10.17;46.32;100901.13;10523123;28;20075;-62
2023/05/02 20:09:37;;;;;;;12.95;4.00;;;;;;;10.14;47.13;100912.56;10522416;28;20056;-62
2023/05/02 20:14:40;;;;;;;13.98;4.55;;;;;;;10.03;47.83;100919.16;10522765;28;20048;-62
2023/05/02 20:19:44;;;;;;;9.13;4.20;;;;;;;10.06;48.12;100926.84;10503348;28;20050;-62
2023/05/02 20:24:45;;;;;;;10.30;4.50;;;;;;;9.94;48.84;100928.22;10503898;28;20054;-62
2023/05/02 20:29:47;;;;;;;8.10;4.47;;;;;;;9.84;49.54;100941.72;10521757;28;20130;-62
2023/05/02 20:34:49;;;;;;;6.80;4.18;;;;;;;9.67;49.76;100945.00;10536835;28;20437;-63
2023/05/02 20:39:51;;;;;;;9.88;4.40;;;;;;;9.53;50.04;100942.06;10521121;28;20059;-63
2023/05/02 20:44:56;;;;;;;12.65;5.13;;;;;;;9.51;49.95;100949.97;10521353;28;20044;-63
2023/05/02 20:49:58;;;;;;;10.63;5.00;;;;;;;9.24;50.31;100952.81;10520704;28;20078;-63
2023/05/02 20:55:00;;;;;;;42.88;6.22;;;;;;;9.12;50.42;100946.25;10520991;28;20291;-63
2023/05/02 21:00:03;;;;;;;30.70;5.63;;;;;;;8.96;50.69;100955.56;10485676;28;20589;-63
2023/05/02 21:05:05;;;;;;;22.65;5.53;;;;;;;8.97;50.82;100954.69;10520360;28;20123;-63
2023/05/02 21:10:09;;;;;;;18.05;5.18;;;;;;;8.98;51.07;100956.38;10501973;28;20047;-63
2023/05/02 21:15:14;;;;;;;14.23;6.15;;;;;;;8.90;51.72;100966.25;10520538;28;20037;-63
2023/05/02 21:20:15;;;;;;;11.48;6.40;;;;;;;8.78;52.62;100961.47;10519596;28;20899;-62
2023/05/02 21:25:18;;;;;;;15.75;5.88;;;;;;;8.72;53.11;100969.50;10519100;28;20488;-63
2023/05/02 21:30:20;;;;;;;24.08;5.95;;;;;;;8.65;53.07;100968.00;10519227;28;20063;-63
2023/05/02 21:35:21;;;;;;;11.00;5.10;;;;;;;8.61;52.70;100979.47;10499944;28;20136;-63
2023/05/02 21:40:23;;;;;;;9.27;4.80;;;;;;;8.52;53.14;100985.88;10501126;28;20512;-62
2023/05/02 21:45:25;;;;;;;9.98;5.55;;;;;;;8.49;53.18;100987.72;10519053;28;20185;-62
2023/05/02 21:50:28;;;;;;;13.65;5.80;;;;;;;8.31;53.50;100993.53;10518574;28;20147;-63
2023/05/02 21:55:29;;;;;;;10.48;6.00;;;;;;;8.18;53.35;100987.88;10518439;28;20048;-62
2023/05/02 22:00:32;;;;;;;12.35;6.15;;;;;;;8.10;53.70;100987.28;10533960;28;20047;-62
2023/05/02 22:05:38;;;;;;;15.30;5.53;;;;;;;8.13;54.00;100997.63;10517851;28;20121;-62
2023/05/02 22:10:42;;;;;;;15.45;7.10;;;;;;;7.83;53.94;100999.41;10517817;28;20432;-62
2023/05/02 22:15:45;;;;;;;13.55;6.32;;;;;;;7.45;54.70;101001.53;10517928;28;20048;-62
2023/05/02 22:20:47;;;;;;;13.00;6.80;;;;;;;7.52;54.83;100997.81;10517833;28;20046;-64
2023/05/02 22:25:49;;;;;;;13.05;7.78;;;;;;;7.54;55.00;101007.28;10517595;28;20079;-62
2023/05/02 22:30:50;;;;;;;11.45;6.82;;;;;;;7.60;55.04;101020.13;10499080;28;20480;-62
2023/05/02 22:35:52;;;;;;;11.68;6.35;;;;;;;7.49;55.31;101022.19;10517006;28;20078;-62
2023/05/02 22:40:54;;;;;;;10.68;6.50;;;;;;;7.43;55.34;101026.72;10517029;28;20074;-62
2023/05/02 22:45:57;;;;;;;11.82;7.20;;;;;;;7.19;55.86;101021.34;10526319;28;20715;-62
2023/05/02 22:50:59;;;;;;;9.85;7.25;;;;;;;7.07;56.19;101029.50;10530749;28;20167;-63
2023/05/02 22:56:02;;;;;;;10.77;6.97;;;;;;;7.03;56.32;101040.03;10530823;28;20471;-63
2023/05/02 23:01:04;;;;;;;10.15;6.43;;;;;;;6.87;56.32;101023.13;10495745;28;20079;-63
2023/05/02 23:06:06;;;;;;;10.95;6.50;;;;;;;6.81;56.73;101024.16;10530633;28;20208;-63